Time;durP1;ratioP1;P1;durP2;ratioP2;P2;SDS_P1;SDS_P2;PMS_P1;PMS_P2;Temp;Humidity;BMP_temperature;BMP_pressure;BME280_temperature;BME280_humidity;BME280_pressure;Samples;Min_cycle;Max_cycle;Signal;HPM_P1;HPM_P2
2021/04/30 00:01:00;;;;;;;13.30;8.53;;;7.60;99.90;;;;;;5037706;28;20248;-51
2021/04/30 00:03:27;;;;;;;14.27;8.20;;;7.50;99.90;;;;;;5037246;28;20796;-51
2021/04/30 00:05:53;;;;;;;12.00;7.37;;;7.50;99.90;;;;;;5029336;28;20302;-51
2021/04/30 00:08:19;;;;;;;12.43;7.07;;;7.50;99.90;;;;;;5030958;28;20348;-51
2021/04/30 00:10:46;;;;;;;13.93;8.70;;;7.50;99.90;;;;;;5035096;28;20349;-52
2021/04/30 00:13:12;;;;;;;11.73;7.80;;;7.50;99.90;;;;;;5033902;28;20201;-51
2021/04/30 00:15:39;;;;;;;13.13;7.97;;;7.60;99.90;;;;;;5036374;28;20745;-51
2021/04/30 00:18:06;;;;;;;9.67;7.87;;;7.50;99.90;;;;;;5032686;28;20259;-51
2021/04/30 00:20:34;;;;;;;15.17;8.67;;;7.50;99.90;;;;;;5031761;28;20672;-51
2021/04/30 00:23:01;;;;;;;11.23;7.97;;;7.40;99.90;;;;;;5032147;28;20243;-50
2021/04/30 00:25:28;;;;;;;11.90;7.93;;;7.50;99.90;;;;;;5032264;28;20371;-51
2021/04/30 00:27:55;;;;;;;11.90;8.33;;;7.30;99.90;;;;;;5032123;28;20264;-51
2021/04/30 00:30:22;;;;;;;16.90;9.10;;;7.30;99.90;;;;;;5039794;28;20662;-51
2021/04/30 00:32:48;;;;;;;13.93;8.23;;;7.20;99.90;;;;;;5033845;28;20308;-51
2021/04/30 00:35:15;;;;;;;17.30;8.60;;;7.40;99.90;;;;;;5034314;28;20199;-51
2021/04/30 00:37:41;;;;;;;17.23;9.07;;;7.40;99.90;;;;;;5032734;28;20353;-51
2021/04/30 00:40:09;;;;;;;14.57;8.90;;;7.50;99.90;;;;;;5032546;28;20234;-51
2021/04/30 00:42:36;;;;;;;14.43;8.83;;;7.50;99.90;;;;;;5035624;28;20272;-51
2021/04/30 00:45:05;;;;;;;12.33;7.97;;;7.50;99.90;;;;;;5030770;28;20251;-50
2021/04/30 00:47:34;;;;;;;12.63;8.83;;;7.40;99.90;;;;;;5033718;28;20224;-51
2021/04/30 00:50:03;;;;;;;16.90;8.67;;;7.50;99.90;;;;;;5033731;28;20252;-51
2021/04/30 00:52:29;;;;;;;12.33;8.70;;;7.50;99.90;;;;;;5034856;28;20390;-51
2021/04/30 00:54:58;;;;;;;11.43;8.30;;;7.60;99.90;;;;;;5030841;28;20190;-51
2021/04/30 00:57:25;;;;;;;12.67;8.70;;;7.50;99.90;;;;;;5034745;28;20231;-51
2021/04/30 00:59:53;;;;;;;13.27;9.13;;;7.40;99.90;;;;;;5033484;28;20277;-51
2021/04/30 01:02:19;;;;;;;15.43;8.67;;;7.40;99.90;;;;;;5033061;28;20220;-51
2021/04/30 01:04:46;;;;;;;13.20;8.73;;;7.40;99.90;;;;;;5034810;28;20289;-51
2021/04/30 01:07:12;;;;;;;18.33;9.27;;;7.40;99.90;;;;;;5029500;28;20318;-51
2021/04/30 01:09:38;;;;;;;13.97;8.97;;;7.50;99.90;;;;;;5029537;28;20328;-51
2021/04/30 01:12:05;;;;;;;16.50;9.50;;;7.60;99.90;;;;;;5034019;28;20309;-52
2021/04/30 01:14:33;;;;;;;15.43;8.80;;;7.60;99.90;;;;;;5031192;28;20211;-51
2021/04/30 01:16:59;;;;;;;16.03;8.87;;;7.60;99.90;;;;;;5037224;28;20201;-51
2021/04/30 01:19:27;;;;;;;16.93;9.43;;;7.60;99.90;;;;;;5031661;28;20243;-51
2021/04/30 01:21:58;;;;;;;14.33;8.67;;;7.70;99.90;;;;;;5036192;28;20285;-51
2021/04/30 01:24:25;;;;;;;14.23;8.67;;;7.70;99.90;;;;;;5029423;28;20202;-52
2021/04/30 01:26:52;;;;;;;10.07;8.43;;;7.90;99.90;;;;;;5034777;28;20544;-51
2021/04/30 01:29:19;;;;;;;12.77;8.40;;;7.70;99.90;;;;;;5030417;28;20268;-51
2021/04/30 01:31:46;;;;;;;14.07;8.87;;;7.70;99.90;;;;;;5032914;28;20199;-51
2021/04/30 01:34:13;;;;;;;16.50;8.80;;;7.70;99.90;;;;;;5035323;28;20279;-51
2021/04/30 01:36:40;;;;;;;13.40;8.13;;;7.50;99.90;;;;;;5034318;28;20196;-52
2021/04/30 01:39:09;;;;;;;13.47;7.93;;;7.50;99.90;;;;;;5035194;28;20267;-51
2021/04/30 01:41:37;;;;;;;12.80;8.10;;;7.40;99.90;;;;;;5037129;28;20682;-50
2021/04/30 01:44:13;;;;;;;17.63;9.33;;;7.40;99.90;;;;;;5030107;28;20232;-50
2021/04/30 01:46:40;;;;;;;14.50;8.67;;;7.50;99.90;;;;;;5028789;28;20643;-51
2021/04/30 01:49:08;;;;;;;15.23;9.10;;;7.40;99.90;;;;;;5032240;28;20201;-50
2021/04/30 01:51:35;;;;;;;13.27;8.70;;;7.20;99.90;;;;;;5030247;28;20729;-51
2021/04/30 01:54:05;;;;;;;13.87;8.23;;;7.30;99.90;;;;;;5031335;28;20306;-50
2021/04/30 01:56:32;;;;;;;12.60;8.90;;;7.30;99.90;;;;;;5034531;28;20563;-50
2021/04/30 01:58:59;;;;;;;12.87;8.40;;;7.40;99.90;;;;;;5030026;28;20268;-50
2021/04/30 02:01:25;;;;;;;14.30;8.93;;;7.20;99.90;;;;;;5030052;28;20197;-50
2021/04/30 02:03:58;;;;;;;18.43;9.07;;;7.30;99.90;;;;;;5030955;28;20195;-51
2021/04/30 02:06:25;;;;;;;11.80;8.83;;;7.20;99.90;;;;;;5027622;28;20228;-51
2021/04/30 02:08:53;;;;;;;17.23;8.90;;;7.20;99.90;;;;;;5032053;28;20239;-50
2021/04/30 02:11:20;;;;;;;13.37;9.27;;;7.10;99.90;;;;;;5031625;28;20555;-51
2021/04/30 02:13:46;;;;;;;15.40;8.80;;;7.30;99.90;;;;;;5032155;28;20223;-51
2021/04/30 02:16:12;;;;;;;15.77;9.60;;;7.50;99.90;;;;;;5034940;28;20243;-50
2021/04/30 02:18:38;;;;;;;13.10;8.97;;;7.50;99.90;;;;;;5031636;28;20270;-51
2021/04/30 02:21:05;;;;;;;10.43;7.87;;;7.50;99.90;;;;;;5035303;28;20276;-51
2021/04/30 02:23:31;;;;;;;19.23;8.80;;;7.40;99.90;;;;;;5034309;28;20199;-51
2021/04/30 02:25:57;;;;;;;16.60;9.13;;;7.40;99.90;;;;;;5030047;28;20244;-51
2021/04/30 02:28:24;;;;;;;15.27;8.77;;;7.40;99.90;;;;;;5037656;28;20716;-51
2021/04/30 02:30:50;;;;;;;14.33;8.57;;;7.30;99.90;;;;;;5028953;28;20212;-51
2021/04/30 02:33:16;;;;;;;17.33;8.90;;;7.40;99.90;;;;;;5031864;28;20196;-51
2021/04/30 02:35:45;;;;;;;17.00;9.27;;;7.30;99.90;;;;;;5031260;28;20281;-51
2021/04/30 02:38:14;;;;;;;11.60;8.63;;;7.30;99.90;;;;;;5030339;28;20304;-50
2021/04/30 02:40:43;;;;;;;13.53;9.23;;;7.30;99.90;;;;;;5033306;28;20277;-51
2021/04/30 02:43:12;;;;;;;16.53;9.23;;;7.50;99.90;;;;;;5031389;28;20232;-50
2021/04/30 02:45:39;;;;;;;14.33;9.87;;;7.60;99.90;;;;;;5027017;28;20258;-49
2021/04/30 02:48:12;;;;;;;14.80;9.30;;;7.60;99.90;;;;;;5031030;28;20263;-49
2021/04/30 02:50:39;;;;;;;11.53;8.70;;;7.70;99.90;;;;;;5028631;28;20592;-50
2021/04/30 02:53:05;;;;;;;13.27;9.53;;;7.70;99.90;;;;;;5033992;28;20280;-50
2021/04/30 02:55:31;;;;;;;13.07;9.03;;;7.70;99.90;;;;;;5035740;28;20259;-50
2021/04/30 02:58:00;;;;;;;13.90;8.47;;;7.70;99.90;;;;;;5036881;28;20201;-50
2021/04/30 03:00:27;;;;;;;12.80;8.30;;;7.50;99.90;;;;;;5031428;28;20225;-49
2021/04/30 03:02:54;;;;;;;15.20;9.27;;;7.30;99.90;;;;;;5035709;28;20614;-50
2021/04/30 03:05:22;;;;;;;13.27;9.97;;;7.20;99.90;;;;;;5030345;28;20538;-51
2021/04/30 03:07:48;;;;;;;21.53;9.80;;;7.20;99.90;;;;;;5035915;28;20206;-50
2021/04/30 03:10:15;;;;;;;18.13;9.63;;;7.50;99.90;;;;;;5035540;28;20806;-50
2021/04/30 03:12:42;;;;;;;14.03;9.47;;;7.50;99.90;;;;;;5035353;28;20205;-50
2021/04/30 03:15:10;;;;;;;14.10;9.50;;;7.40;99.90;;;;;;5037670;28;20233;-50
2021/04/30 03:17:36;;;;;;;16.83;10.07;;;7.60;99.90;;;;;;5033527;28;20651;-50
2021/04/30 03:20:03;;;;;;;16.33;9.60;;;7.70;99.90;;;;;;5032981;28;20243;-50
2021/04/30 03:22:30;;;;;;;17.97;10.90;;;7.80;99.90;;;;;;5039670;28;20202;-50
2021/04/30 03:24:56;;;;;;;15.67;10.20;;;7.80;99.90;;;;;;5038181;28;20247;-50
2021/04/30 03:27:25;;;;;;;13.23;10.27;;;7.70;99.90;;;;;;5034880;28;20264;-49
2021/04/30 03:29:52;;;;;;;16.30;10.13;;;7.70;99.90;;;;;;5030670;28;20203;-49
2021/04/30 03:32:18;;;;;;;15.10;10.03;;;7.70;99.90;;;;;;5035608;28;20271;-51
2021/04/30 03:34:45;;;;;;;15.80;10.80;;;7.70;99.90;;;;;;5031714;28;20291;-49
2021/04/30 03:37:11;;;;;;;16.80;10.83;;;7.70;99.90;;;;;;5035854;28;20247;-50
2021/04/30 03:39:37;;;;;;;18.73;10.73;;;7.60;99.90;;;;;;5035577;28;20672;-49
2021/04/30 03:42:04;;;;;;;15.20;10.57;;;7.80;99.90;;;;;;5032413;28;20196;-49
2021/04/30 03:44:31;;;;;;;17.43;11.47;;;7.90;99.90;;;;;;5038159;28;21442;-49
2021/04/30 03:46:58;;;;;;;14.23;10.23;;;8.10;99.90;;;;;;5036937;28;20734;-50
2021/04/30 03:49:24;;;;;;;16.33;10.43;;;8.20;99.90;;;;;;5042925;28;20243;-50
2021/04/30 03:51:51;;;;;;;18.47;10.63;;;8.10;99.90;;;;;;5039062;28;20261;-50
2021/04/30 03:54:17;;;;;;;20.00;9.70;;;8.30;99.90;;;;;;5038585;28;20227;-50
2021/04/30 03:56:44;;;;;;;15.33;9.97;;;8.40;99.90;;;;;;5034401;28;20590;-50
2021/04/30 03:59:10;;;;;;;17.97;10.70;;;8.40;99.90;;;;;;5038653;28;20227;-50
2021/04/30 04:01:37;;;;;;;19.00;10.80;;;8.30;99.90;;;;;;5028906;28;20290;-50
2021/04/30 04:04:03;;;;;;;13.80;9.73;;;8.40;99.90;;;;;;5034893;28;20197;-49
2021/04/30 04:06:30;;;;;;;15.40;9.47;;;8.50;99.90;;;;;;5037388;28;20208;-50
2021/04/30 04:08:56;;;;;;;17.67;9.60;;;8.40;99.90;;;;;;5034665;28;20226;-50
2021/04/30 04:11:22;;;;;;;17.40;10.07;;;8.40;99.90;;;;;;5034195;28;20211;-50
2021/04/30 04:13:49;;;;;;;17.87;10.33;;;8.50;99.90;;;;;;5034328;28;20224;-50
2021/04/30 04:16:15;;;;;;;16.27;10.13;;;8.40;99.90;;;;;;5032759;28;20238;-50
2021/04/30 04:18:41;;;;;;;19.33;10.17;;;8.60;99.90;;;;;;5032796;28;20440;-51
2021/04/30 04:21:08;;;;;;;17.23;10.23;;;8.50;99.90;;;;;;5036222;28;20628;-49
2021/04/30 04:23:34;;;;;;;15.20;10.17;;;8.50;99.90;;;;;;5035479;28;20249;-49
2021/04/30 04:26:01;;;;;;;16.33;10.70;;;8.50;99.90;;;;;;5035661;28;20228;-49
2021/04/30 04:28:27;;;;;;;15.40;10.17;;;8.50;99.90;;;;;;5038689;28;20697;-49
2021/04/30 04:30:55;;;;;;;12.73;10.27;;;8.30;99.90;;;;;;5030796;28;20229;-50
2021/04/30 04:33:21;;;;;;;16.77;9.30;;;8.20;99.90;;;;;;5036817;28;20261;-49
2021/04/30 04:35:48;;;;;;;15.87;10.37;;;7.90;99.90;;;;;;5035945;28;20200;-50
2021/04/30 04:38:14;;;;;;;16.47;10.00;;;7.90;99.90;;;;;;5034926;28;20291;-49
2021/04/30 04:40:40;;;;;;;19.73;10.77;;;8.00;99.90;;;;;;5035438;28;20753;-50
2021/04/30 04:43:07;;;;;;;15.83;10.10;;;8.00;99.90;;;;;;5036075;28;20234;-50
2021/04/30 04:45:33;;;;;;;13.90;10.10;;;8.00;99.90;;;;;;5034253;28;20630;-49
2021/04/30 04:47:59;;;;;;;18.53;10.93;;;8.10;99.90;;;;;;5025923;28;20245;-49
2021/04/30 04:50:26;;;;;;;15.53;10.43;;;8.00;99.90;;;;;;5029725;28;20661;-50
2021/04/30 04:52:52;;;;;;;16.40;10.67;;;8.10;99.90;;;;;;5028872;28;20195;-50
2021/04/30 04:55:18;;;;;;;18.40;10.80;;;7.90;99.90;;;;;;5033531;28;20322;-49
2021/04/30 04:57:45;;;;;;;19.77;9.63;;;7.90;99.90;;;;;;5034600;28;20685;-50
2021/04/30 05:00:13;;;;;;;16.03;10.67;;;8.10;99.90;;;;;;5032571;28;20197;-50
2021/04/30 05:02:39;;;;;;;17.47;10.17;;;8.20;99.90;;;;;;5034981;28;20202;-50
2021/04/30 05:05:07;;;;;;;17.77;10.30;;;8.20;99.90;;;;;;5031712;28;20276;-50
2021/04/30 05:07:34;;;;;;;16.27;10.80;;;8.10;99.90;;;;;;5036029;28;20249;-50
2021/04/30 05:10:00;;;;;;;15.20;10.27;;;8.00;99.90;;;;;;5032070;28;20292;-49
2021/04/30 05:12:27;;;;;;;21.13;11.20;;;8.00;99.90;;;;;;5029890;28;20295;-49
2021/04/30 05:14:53;;;;;;;17.07;11.20;;;7.90;99.90;;;;;;5032557;28;20195;-50
2021/04/30 05:17:19;;;;;;;18.17;11.37;;;7.90;99.90;;;;;;5038314;28;20235;-50
2021/04/30 05:19:46;;;;;;;14.67;10.93;;;7.90;99.90;;;;;;5029682;28;20299;-50
2021/04/30 05:22:16;;;;;;;16.90;11.23;;;8.00;99.90;;;;;;5032019;28;20295;-50
2021/04/30 05:24:44;;;;;;;22.33;11.57;;;8.20;99.90;;;;;;5034293;28;20202;-50
2021/04/30 05:27:11;;;;;;;23.20;11.00;;;8.10;99.90;;;;;;5027272;28;20720;-50
2021/04/30 05:29:42;;;;;;;17.77;11.73;;;8.00;99.90;;;;;;5038213;28;20235;-50
2021/04/30 05:32:09;;;;;;;13.67;10.60;;;8.20;99.90;;;;;;5032491;28;20602;-50
2021/04/30 05:34:38;;;;;;;21.70;11.30;;;8.30;99.90;;;;;;5032516;28;20205;-50
2021/04/30 05:37:06;;;;;;;20.47;10.93;;;8.00;99.90;;;;;;5026990;28;20623;-49
2021/04/30 05:39:33;;;;;;;17.50;11.27;;;7.90;99.90;;;;;;5041808;28;20630;-52
2021/04/30 05:42:00;;;;;;;16.97;11.03;;;8.00;99.90;;;;;;5020171;28;20207;-50
2021/04/30 05:44:28;;;;;;;19.30;11.77;;;8.00;99.90;;;;;;5029821;28;20210;-49
2021/04/30 05:46:54;;;;;;;18.50;10.90;;;8.20;99.90;;;;;;5038373;28;20199;-50
2021/04/30 05:49:21;;;;;;;15.63;10.83;;;8.10;99.90;;;;;;5036269;28;20226;-50
2021/04/30 05:51:47;;;;;;;16.97;10.87;;;8.30;99.90;;;;;;5036656;28;20609;-50
2021/04/30 05:54:13;;;;;;;20.77;11.03;;;8.30;99.90;;;;;;5034698;28;20298;-49
2021/04/30 05:56:40;;;;;;;13.30;10.50;;;8.30;99.90;;;;;;5031463;28;20277;-50
2021/04/30 05:59:06;;;;;;;15.30;10.47;;;8.10;99.90;;;;;;5031602;28;20226;-50
2021/04/30 06:01:32;;;;;;;16.93;10.80;;;8.00;99.90;;;;;;5024371;28;20306;-50
2021/04/30 06:03:58;;;;;;;17.50;11.73;;;8.10;99.90;;;;;;5031477;28;20235;-50
2021/04/30 06:06:25;;;;;;;15.63;11.53;;;8.20;99.90;;;;;;5036436;28;20207;-58
2021/04/30 06:08:51;;;;;;;17.37;10.40;;;8.20;99.90;;;;;;5030524;28;20760;-50
2021/04/30 06:11:17;;;;;;;17.23;10.77;;;8.10;99.90;;;;;;5034346;28;20292;-51
2021/04/30 06:13:44;;;;;;;20.87;10.77;;;8.10;99.90;;;;;;5035858;28;20286;-50
2021/04/30 06:16:10;;;;;;;14.93;9.93;;;8.20;99.90;;;;;;5031312;28;20304;-51
2021/04/30 06:18:36;;;;;;;18.10;9.97;;;8.10;99.90;;;;;;5035726;28;20401;-50
2021/04/30 06:21:03;;;;;;;13.77;10.03;;;8.20;99.90;;;;;;5033310;28;20196;-50
2021/04/30 06:23:30;;;;;;;13.93;10.27;;;8.40;99.90;;;;;;5037236;28;20235;-51
2021/04/30 06:25:56;;;;;;;15.50;9.63;;;8.50;99.90;;;;;;5037536;28;20262;-50
2021/04/30 06:28:22;;;;;;;17.23;9.60;;;8.40;99.90;;;;;;5032506;28;20256;-51
2021/04/30 06:30:50;;;;;;;12.63;9.63;;;8.50;99.90;;;;;;5031548;28;20204;-50
2021/04/30 06:33:17;;;;;;;14.07;9.63;;;8.50;99.90;;;;;;5031674;28;20197;-51
2021/04/30 06:35:43;;;;;;;17.23;9.97;;;8.70;99.90;;;;;;5037095;28;20285;-50
2021/04/30 06:38:09;;;;;;;19.40;9.13;;;8.60;99.90;;;;;;5031864;28;20603;-52
2021/04/30 06:40:36;;;;;;;15.30;9.57;;;8.80;99.90;;;;;;5031362;28;20682;-50
2021/04/30 06:43:03;;;;;;;15.27;8.73;;;8.80;99.90;;;;;;5027984;28;20290;-50
2021/04/30 06:45:29;;;;;;;11.87;9.40;;;8.90;99.90;;;;;;5029298;28;20271;-51
2021/04/30 06:47:56;;;;;;;15.53;9.40;;;8.90;99.90;;;;;;5030210;28;20240;-50
2021/04/30 06:50:22;;;;;;;13.13;8.37;;;8.90;99.90;;;;;;5033548;28;20193;-50
2021/04/30 06:52:53;;;;;;;21.83;14.13;;;8.80;99.90;;;;;;5030451;28;20204;-50
2021/04/30 06:55:19;;;;;;;16.37;8.97;;;8.90;99.90;;;;;;5033992;28;20216;-50
2021/04/30 06:57:46;;;;;;;17.60;9.00;;;8.70;99.90;;;;;;5032594;28;20625;-50
2021/04/30 07:00:15;;;;;;;15.23;8.83;;;8.90;99.90;;;;;;5028282;28;20282;-51
2021/04/30 07:02:41;;;;;;;12.27;8.10;;;9.00;99.90;;;;;;5037341;28;20230;-51
2021/04/30 07:05:08;;;;;;;14.33;8.73;;;8.90;99.90;;;;;;5030689;28;20516;-50
2021/04/30 07:07:35;;;;;;;12.37;8.03;;;8.90;99.90;;;;;;5028856;28;20212;-51
2021/04/30 07:10:02;;;;;;;11.73;8.47;;;9.00;99.90;;;;;;5034258;28;20196;-50
2021/04/30 07:12:28;;;;;;;19.03;8.00;;;9.20;99.90;;;;;;5035539;28;20247;-51
2021/04/30 07:14:55;;;;;;;9.40;7.50;;;9.00;99.90;;;;;;5032285;28;20661;-51
2021/04/30 07:17:21;;;;;;;14.67;6.90;;;8.80;99.90;;;;;;5032813;28;20245;-50
2021/04/30 07:19:47;;;;;;;12.67;7.53;;;8.60;99.90;;;;;;5027344;28;20718;-49
2021/04/30 07:22:14;;;;;;;12.30;8.17;;;8.50;99.90;;;;;;5039258;28;20584;-50
2021/04/30 07:24:41;;;;;;;12.43;8.00;;;8.60;99.90;;;;;;5035762;28;20223;-51
2021/04/30 07:27:08;;;;;;;12.77;7.93;;;8.50;99.90;;;;;;5034665;28;20330;-50
2021/04/30 07:29:35;;;;;;;13.10;8.27;;;8.40;99.90;;;;;;5032344;28;20194;-50
2021/04/30 07:32:03;;;;;;;13.33;7.93;;;8.30;99.90;;;;;;5042012;28;20266;-50
2021/04/30 07:34:36;;;;;;;12.20;8.20;;;8.50;99.90;;;;;;5027564;28;20236;-51
2021/04/30 07:37:04;;;;;;;17.50;8.63;;;8.80;99.90;;;;;;5035730;28;20201;-50
2021/04/30 07:39:31;;;;;;;12.37;8.30;;;8.70;99.90;;;;;;5027551;28;20235;-51
2021/04/30 07:41:58;;;;;;;10.53;7.07;;;8.70;99.90;;;;;;5037697;28;20207;-51
2021/04/30 07:44:24;;;;;;;15.33;7.67;;;8.60;99.90;;;;;;5033498;28;20238;-50
2021/04/30 07:46:51;;;;;;;16.13;7.93;;;8.60;99.90;;;;;;5033349;28;20201;-51
2021/04/30 07:49:18;;;;;;;9.83;7.60;;;8.50;99.90;;;;;;5030338;28;20221;-51
2021/04/30 07:51:44;;;;;;;11.37;8.40;;;8.80;99.90;;;;;;5036347;28;20193;-50
2021/04/30 07:54:11;;;;;;;14.50;8.70;;;8.90;99.90;;;;;;5040357;28;20202;-50
2021/04/30 07:56:38;;;;;;;13.77;8.30;;;8.90;99.90;;;;;;5033598;28;20202;-51
2021/04/30 07:59:04;;;;;;;13.03;7.03;;;8.80;99.90;;;;;;5030359;28;20383;-51
2021/04/30 08:01:31;;;;;;;11.23;7.67;;;8.90;99.90;;;;;;5035256;28;20604;-51
2021/04/30 08:03:57;;;;;;;11.07;7.67;;;8.90;99.90;;;;;;5034646;28;20199;-60
2021/04/30 08:06:24;;;;;;;12.67;7.17;;;8.90;99.90;;;;;;5031637;28;20205;-51
2021/04/30 08:08:50;;;;;;;15.23;7.40;;;9.20;99.90;;;;;;5033329;28;20230;-50
2021/04/30 08:11:16;;;;;;;14.07;7.80;;;9.30;99.90;;;;;;5030996;28;20196;-50
2021/04/30 08:13:43;;;;;;;12.67;6.93;;;9.30;99.90;;;;;;5040657;28;20585;-51
2021/04/30 08:16:09;;;;;;;11.80;8.30;;;9.00;99.90;;;;;;5031664;28;20206;-50
2021/04/30 08:18:36;;;;;;;18.03;8.37;;;9.30;99.90;;;;;;5040329;28;20209;-50
2021/04/30 08:21:03;;;;;;;17.07;8.63;;;9.50;99.90;;;;;;5030894;28;20231;-50
2021/04/30 08:23:30;;;;;;;13.17;9.37;;;9.10;99.90;;;;;;5034790;28;20230;-51
2021/04/30 08:25:57;;;;;;;18.80;8.63;;;9.10;99.90;;;;;;5028502;28;20215;-51
2021/04/30 08:28:23;;;;;;;14.57;8.70;;;9.40;99.90;;;;;;5041130;28;20296;-50
2021/04/30 08:30:50;;;;;;;16.07;8.43;;;9.40;99.90;;;;;;5031652;28;20204;-50
2021/04/30 08:33:16;;;;;;;13.67;8.70;;;9.40;99.90;;;;;;5026793;28;20230;-51
2021/04/30 08:35:42;;;;;;;19.20;10.30;;;9.30;99.90;;;;;;5028540;28;20244;-50
2021/04/30 08:38:08;;;;;;;16.37;10.00;;;9.40;99.90;;;;;;5030662;28;20273;-50
2021/04/30 08:40:35;;;;;;;16.27;9.17;;;9.70;99.90;;;;;;5034096;28;20207;-50
2021/04/30 08:43:01;;;;;;;12.43;9.73;;;9.60;99.90;;;;;;5032218;28;20653;-50
2021/04/30 08:45:28;;;;;;;13.97;8.63;;;9.50;99.90;;;;;;5032676;28;20261;-51
2021/04/30 08:47:55;;;;;;;19.00;10.50;;;9.50;99.90;;;;;;5034064;28;20219;-51
2021/04/30 08:50:21;;;;;;;14.63;9.83;;;9.60;99.90;;;;;;5036126;28;20248;-50
2021/04/30 08:52:48;;;;;;;14.17;9.60;;;9.70;99.90;;;;;;5031146;28;20605;-50
2021/04/30 08:55:16;;;;;;;16.30;9.00;;;9.90;99.90;;;;;;5033735;28;20199;-50
2021/04/30 08:57:52;;;;;;;14.53;9.80;;;10.00;99.90;;;;;;5034590;28;20212;-51
2021/04/30 09:00:20;;;;;;;16.53;10.63;;;10.20;99.90;;;;;;5033954;28;20208;-50
2021/04/30 09:02:46;;;;;;;15.77;10.80;;;10.50;99.90;;;;;;5037002;28;20382;-51
2021/04/30 09:05:28;;;;;;;16.00;11.07;;;10.60;99.90;;;;;;5034365;28;20207;-50
2021/04/30 09:07:58;;;;;;;13.07;10.63;;;10.70;99.90;;;;;;5033586;28;20216;-50
2021/04/30 09:10:27;;;;;;;17.97;10.03;;;10.70;99.90;;;;;;5031255;28;20215;-50
2021/04/30 09:13:09;;;;;;;15.33;10.10;;;10.40;99.90;;;;;;5031778;28;20237;-50
2021/04/30 09:15:37;;;;;;;21.77;10.73;;;10.40;99.90;;;;;;5030007;28;20197;-51
2021/04/30 09:18:18;;;;;;;19.87;11.47;;;10.50;99.90;;;;;;5031392;28;20281;-51
2021/04/30 09:20:47;;;;;;;17.37;10.23;;;10.10;99.90;;;;;;5027740;28;20243;-50
2021/04/30 09:23:43;;;;;;;15.40;10.47;;;10.20;99.90;;;;;;5025572;28;20208;-50
2021/04/30 09:26:38;;;;;;;18.97;10.67;;;10.30;99.90;;;;;;5027101;28;20213;-51
2021/04/30 09:29:05;;;;;;;15.83;10.13;;;10.40;99.90;;;;;;5029818;28;20990;-51
2021/04/30 09:31:35;;;;;;;17.33;9.73;;;10.60;99.90;;;;;;5025413;28;20196;-50
2021/04/30 09:34:17;;;;;;;22.23;10.43;;;10.40;99.90;;;;;;5032247;28;20250;-51
2021/04/30 09:37:17;;;;;;;17.93;10.47;;;10.40;99.90;;;;;;5027840;28;20204;-51
2021/04/30 09:39:58;;;;;;;19.43;11.87;;;10.50;99.90;;;;;;5023926;28;20207;-51
2021/04/30 09:42:32;;;;;;;14.87;10.43;;;10.50;99.90;;;;;;5027605;28;20208;-51
2021/04/30 09:45:05;;;;;;;21.13;10.70;;;10.30;99.90;;;;;;5025324;28;20235;-51
2021/04/30 09:47:38;;;;;;;17.23;10.70;;;10.30;99.90;;;;;;5026739;28;20222;-51
2021/04/30 09:50:09;;;;;;;20.93;10.20;;;10.50;99.90;;;;;;5028161;28;20196;-51
2021/04/30 09:52:35;;;;;;;15.40;10.03;;;10.50;99.90;;;;;;5021556;28;20196;-50
2021/04/30 09:55:05;;;;;;;20.10;10.93;;;10.60;99.90;;;;;;5027252;28;20226;-51
2021/04/30 09:57:33;;;;;;;17.00;11.67;;;10.40;99.90;;;;;;5021765;28;20233;-51
2021/04/30 10:00:00;;;;;;;16.47;11.37;;;10.40;99.90;;;;;;5022752;28;20315;-50
2021/04/30 10:02:28;;;;;;;15.13;10.97;;;10.70;99.90;;;;;;5020755;28;20221;-50
2021/04/30 10:04:57;;;;;;;15.77;10.47;;;10.50;99.90;;;;;;5029225;28;20631;-51
2021/04/30 10:07:37;;;;;;;20.47;11.10;;;10.30;99.90;;;;;;5016433;28;20254;-50
2021/04/30 10:10:06;;;;;;;18.97;12.00;;;10.40;99.90;;;;;;5020510;28;20208;-50
2021/04/30 10:12:33;;;;;;;20.13;12.10;;;10.60;99.90;;;;;;5019873;28;20594;-51
2021/04/30 10:14:59;;;;;;;19.03;11.67;;;10.60;99.90;;;;;;5021398;28;20247;-51
2021/04/30 10:17:26;;;;;;;19.63;12.10;;;11.00;99.90;;;;;;5029526;28;20606;-51
2021/04/30 10:19:53;;;;;;;18.23;11.63;;;11.00;99.90;;;;;;5030503;28;20293;-50
2021/04/30 10:22:25;;;;;;;21.93;11.83;;;11.00;99.90;;;;;;5026555;28;20228;-51
2021/04/30 10:25:19;;;;;;;16.00;11.73;;;10.70;99.90;;;;;;5031127;28;20208;-50
2021/04/30 10:27:52;;;;;;;24.37;12.53;;;10.80;99.90;;;;;;5027736;28;20627;-51
2021/04/30 10:30:50;;;;;;;14.40;11.60;;;10.70;99.90;;;;;;5026113;28;20276;-50
2021/04/30 10:33:43;;;;;;;19.80;12.00;;;10.60;99.90;;;;;;5027708;28;20430;-50
2021/04/30 10:36:29;;;;;;;18.93;11.57;;;10.50;99.90;;;;;;5026259;28;20211;-50
2021/04/30 10:38:58;;;;;;;19.20;12.23;;;10.30;99.90;;;;;;5027809;28;20239;-57
2021/04/30 10:41:30;;;;;;;21.37;11.80;;;10.10;99.90;;;;;;5027987;28;20201;-56
2021/04/30 10:44:15;;;;;;;18.87;13.60;;;10.20;99.90;;;;;;5029197;28;20636;-57
2021/04/30 10:46:44;;;;;;;18.60;13.70;;;10.20;99.90;;;;;;5029019;28;20231;-56
2021/04/30 10:49:16;;;;;;;16.23;12.33;;;10.20;99.90;;;;;;5029956;28;20652;-57
2021/04/30 10:51:43;;;;;;;18.20;12.23;;;10.20;99.90;;;;;;5027916;28;20208;-56
2021/04/30 10:54:27;;;;;;;22.37;12.63;;;10.10;99.90;;;;;;5026275;28;20308;-56
2021/04/30 10:57:08;;;;;;;23.43;12.83;;;10.10;99.90;;;;;;5025668;28;20577;-57
2021/04/30 10:59:35;;;;;;;16.33;12.60;;;10.00;99.90;;;;;;5029060;28;20845;-56
2021/04/30 11:02:08;;;;;;;20.97;13.63;;;10.10;99.90;;;;;;5028087;28;20212;-57
2021/04/30 11:04:35;;;;;;;19.53;13.83;;;10.10;99.90;;;;;;5027574;28;20285;-56
2021/04/30 11:07:04;;;;;;;19.83;13.63;;;10.30;99.90;;;;;;5028082;28;20307;-56
2021/04/30 11:09:38;;;;;;;21.40;13.67;;;10.50;99.90;;;;;;5028312;28;20224;-57
2021/04/30 11:12:17;;;;;;;25.40;14.67;;;10.70;99.90;;;;;;5028141;28;20214;-57
2021/04/30 11:15:10;;;;;;;23.47;14.23;;;10.90;99.90;;;;;;5029335;28;20207;-56
2021/04/30 11:17:59;;;;;;;20.20;14.60;;;11.00;99.90;;;;;;5028578;28;20259;-56
2021/04/30 11:20:28;;;;;;;16.17;12.97;;;11.10;99.90;;;;;;5029952;28;20240;-60
2021/04/30 11:23:14;;;;;;;19.13;13.10;;;11.30;99.90;;;;;;5032112;28;20208;-57
2021/04/30 11:25:59;;;;;;;19.20;13.27;;;11.20;99.90;;;;;;5035523;28;20213;-57
2021/04/30 11:28:30;;;;;;;18.83;13.17;;;11.20;99.90;;;;;;5030711;28;20329;-57
2021/04/30 11:31:09;;;;;;;20.50;13.53;;;11.10;99.90;;;;;;5029888;28;20233;-57
2021/04/30 11:34:05;;;;;;;20.23;13.97;;;11.10;99.90;;;;;;5031916;28;22559;-57
2021/04/30 11:36:32;;;;;;;23.13;14.73;;;11.20;99.90;;;;;;5026026;28;20244;-57
2021/04/30 11:39:32;;;;;;;18.63;13.93;;;11.40;99.90;;;;;;5028491;28;20221;-57
2021/04/30 11:42:11;;;;;;;19.07;14.23;;;11.50;99.90;;;;;;5029914;28;20223;-57
2021/04/30 11:44:38;;;;;;;19.80;12.93;;;11.50;99.90;;;;;;5031996;28;20940;-48
2021/04/30 11:47:06;;;;;;;23.43;13.93;;;11.40;99.90;;;;;;5035483;28;20288;-49
2021/04/30 11:49:39;;;;;;;19.10;13.60;;;11.60;99.90;;;;;;5031778;28;20664;-49
2021/04/30 11:52:08;;;;;;;21.40;13.33;;;11.80;99.90;;;;;;5033908;28;20227;-49
2021/04/30 11:54:37;;;;;;;19.60;14.17;;;11.70;99.90;;;;;;5031938;28;20691;-48
2021/04/30 11:57:07;;;;;;;19.87;13.63;;;11.90;99.90;;;;;;5033701;28;20194;-48
2021/04/30 11:59:36;;;;;;;19.03;13.20;;;12.10;99.90;;;;;;5034197;28;20656;-48
2021/04/30 12:02:26;;;;;;;17.93;13.20;;;12.10;99.90;;;;;;5032835;28;20211;-48
2021/04/30 12:04:55;;;;;;;18.27;13.37;;;12.30;99.90;;;;;;5034986;28;20283;-48
2021/04/30 12:07:34;;;;;;;17.80;12.73;;;12.30;99.90;;;;;;5030678;28;20618;-48
2021/04/30 12:10:02;;;;;;;17.87;13.10;;;12.40;99.90;;;;;;5032694;28;20236;-48
2021/04/30 12:12:29;;;;;;;20.27;12.60;;;12.40;99.90;;;;;;5028959;28;20262;-48
2021/04/30 12:15:07;;;;;;;21.10;13.50;;;12.30;99.90;;;;;;5032286;28;20202;-49
2021/04/30 12:17:35;;;;;;;20.30;13.53;;;12.20;99.90;;;;;;5035940;28;20634;-49
2021/04/30 12:20:14;;;;;;;21.80;15.03;;;12.40;99.90;;;;;;5034800;28;20810;-50
2021/04/30 12:22:51;;;;;;;21.80;14.90;;;12.30;99.90;;;;;;5035262;28;20236;-49
2021/04/30 12:25:27;;;;;;;23.60;13.30;;;12.60;99.90;;;;;;5036396;28;20305;-49
2021/04/30 12:28:11;;;;;;;21.20;15.40;;;12.70;99.90;;;;;;5032671;28;20251;-50
2021/04/30 12:30:39;;;;;;;18.93;14.43;;;12.70;99.90;;;;;;5030727;28;20233;-49
2021/04/30 12:33:07;;;;;;;23.50;15.73;;;12.70;99.90;;;;;;5031682;28;20232;-49
2021/04/30 12:35:35;;;;;;;17.40;14.00;;;12.70;99.90;;;;;;5034817;28;20726;-49
2021/04/30 12:38:06;;;;;;;16.53;13.83;;;13.00;99.90;;;;;;5029635;28;20204;-50
2021/04/30 12:40:32;;;;;;;23.20;13.90;;;13.00;99.90;;;;;;5035399;28;20872;-49
2021/04/30 12:42:59;;;;;;;19.90;13.73;;;12.90;99.90;;;;;;5032569;28;20214;-50
2021/04/30 12:45:26;;;;;;;20.70;13.53;;;12.90;99.90;;;;;;5028791;28;20230;-49
2021/04/30 12:47:55;;;;;;;18.07;14.07;;;12.80;99.90;;;;;;5029129;28;20624;-49